Time;durP1;ratioP1;P1;durP2;ratioP2;P2;SDS_P1;SDS_P2;PMS_P1;PMS_P2;Temp;Humidity;BMP_temperature;BMP_pressure;BME280_temperature;BME280_humidity;BME280_pressure;Samples;Min_cycle;Max_cycle;Signal;HPM_P1;HPM_P2
2022/09/25 00:00:27;;;;;;;15.88;8.48;;;16.20;99.90;;;;;;5004926;28;20125;-79
2022/09/25 00:02:55;;;;;;;21.30;7.72;;;16.20;99.90;;;;;;5020024;28;20046;-79
2022/09/25 00:05:22;;;;;;;17.85;7.00;;;16.10;99.90;;;;;;5029953;28;20045;-79
2022/09/25 00:07:50;;;;;;;14.48;7.32;;;16.10;99.90;;;;;;5031652;28;20417;-79
2022/09/25 00:10:17;;;;;;;15.30;6.32;;;16.10;99.90;;;;;;5031013;28;20113;-79
2022/09/25 00:12:44;;;;;;;17.45;6.05;;;16.20;99.90;;;;;;5031431;28;20049;-79
2022/09/25 00:15:11;;;;;;;13.70;5.68;;;16.10;99.90;;;;;;5029735;28;20052;-79
2022/09/25 00:17:38;;;;;;;12.27;5.72;;;16.10;99.90;;;;;;5031378;28;20069;-79
2022/09/25 00:20:05;;;;;;;13.50;5.18;;;16.10;99.90;;;;;;5031488;28;20046;-79
2022/09/25 00:22:32;;;;;;;16.50;5.50;;;16.10;99.90;;;;;;5046626;28;20041;-79
2022/09/25 00:25:02;;;;;;;16.77;5.38;;;16.10;99.90;;;;;;5020943;28;20046;-79
2022/09/25 00:27:29;;;;;;;14.55;4.68;;;16.10;99.90;;;;;;5017647;28;20068;-79
2022/09/25 00:29:58;;;;;;;12.35;4.53;;;16.00;99.90;;;;;;5010824;28;20052;-79
2022/09/25 00:32:25;;;;;;;15.65;5.18;;;16.10;99.90;;;;;;5007540;28;20147;-79
2022/09/25 00:34:52;;;;;;;13.05;4.50;;;16.00;99.90;;;;;;5021689;28;20090;-79
2022/09/25 00:37:19;;;;;;;13.65;4.30;;;16.10;99.90;;;;;;5018916;28;20045;-79
2022/09/25 00:39:46;;;;;;;11.45;4.45;;;16.00;99.90;;;;;;5029267;28;20763;-79
2022/09/25 00:42:14;;;;;;;14.90;4.22;;;16.10;99.90;;;;;;5030660;28;20248;-79
2022/09/25 00:44:55;;;;;;;10.50;3.83;;;16.10;99.90;;;;;;5029243;28;20049;-79
2022/09/25 00:47:27;;;;;;;10.47;3.80;;;16.00;99.90;;;;;;5021578;28;20502;-79
2022/09/25 00:49:55;;;;;;;14.15;3.50;;;16.00;99.90;;;;;;5024561;28;20068;-79
2022/09/25 00:52:23;;;;;;;11.98;3.20;;;16.00;99.90;;;;;;5022776;28;20409;-79
2022/09/25 00:54:52;;;;;;;12.13;3.53;;;16.00;99.90;;;;;;5028613;28;20505;-79
2022/09/25 00:57:25;;;;;;;13.75;3.35;;;16.00;99.90;;;;;;5018967;28;20494;-79
2022/09/25 00:59:54;;;;;;;15.82;3.85;;;16.00;99.90;;;;;;5017394;28;20049;-79
2022/09/25 01:02:26;;;;;;;14.88;4.00;;;16.00;99.90;;;;;;5030652;28;20091;-79
2022/09/25 01:04:53;;;;;;;10.82;3.40;;;16.00;99.90;;;;;;5011818;28;20053;-79
2022/09/25 01:07:20;;;;;;;10.10;3.58;;;16.00;99.90;;;;;;5030455;28;20056;-79
2022/09/25 01:09:47;;;;;;;11.00;3.08;;;16.00;99.90;;;;;;5030299;28;20060;-79
2022/09/25 01:12:14;;;;;;;15.32;3.42;;;15.90;99.90;;;;;;5030423;28;20041;-79
2022/09/25 01:14:42;;;;;;;15.77;3.40;;;15.90;99.90;;;;;;5025477;28;20052;-79
2022/09/25 01:17:14;;;;;;;11.27;3.72;;;15.90;99.90;;;;;;5021881;28;20050;-79
2022/09/25 01:19:47;;;;;;;12.93;4.03;;;15.90;99.90;;;;;;5029826;28;20042;-79
2022/09/25 01:22:21;;;;;;;15.90;3.55;;;15.90;99.90;;;;;;5030364;28;20219;-79
2022/09/25 01:24:59;;;;;;;10.95;3.10;;;15.90;99.90;;;;;;5028793;28;20072;-79
2022/09/25 01:27:51;;;;;;;14.75;3.60;;;15.90;99.90;;;;;;5026998;28;20073;-79
2022/09/25 01:30:20;;;;;;;14.20;4.45;;;15.90;99.90;;;;;;5029163;28;20042;-79
2022/09/25 01:32:55;;;;;;;13.43;3.80;;;15.90;99.90;;;;;;5030020;28;20045;-79
2022/09/25 01:35:30;;;;;;;11.55;4.38;;;15.90;99.90;;;;;;5028391;28;20037;-79
2022/09/25 01:37:59;;;;;;;14.40;4.07;;;15.80;99.90;;;;;;5030007;28;20055;-79
2022/09/25 01:40:32;;;;;;;13.35;3.80;;;15.80;99.90;;;;;;5028107;28;20046;-79
2022/09/25 01:43:04;;;;;;;11.60;3.30;;;15.80;99.90;;;;;;5029464;28;20091;-79
2022/09/25 01:45:36;;;;;;;16.27;3.95;;;15.80;99.90;;;;;;5027911;28;20502;-79
2022/09/25 01:48:04;;;;;;;13.38;3.53;;;15.80;99.90;;;;;;5029543;28;20053;-79
2022/09/25 01:50:35;;;;;;;9.77;3.42;;;15.80;99.90;;;;;;5023706;28;20046;-79
2022/09/25 01:53:04;;;;;;;12.85;4.18;;;15.80;99.90;;;;;;5017462;28;20049;-79
2022/09/25 01:55:35;;;;;;;11.55;3.58;;;15.80;99.90;;;;;;5009013;28;20056;-79
2022/09/25 01:58:09;;;;;;;10.77;3.15;;;15.80;99.90;;;;;;5003383;28;20111;-79
2022/09/25 02:00:40;;;;;;;10.77;3.58;;;15.80;99.90;;;;;;5022362;28;20724;-79
2022/09/25 02:03:11;;;;;;;13.35;3.90;;;15.80;99.90;;;;;;5015437;28;20501;-79
2022/09/25 02:05:42;;;;;;;13.30;3.40;;;15.80;99.90;;;;;;5019897;28;20049;-80
2022/09/25 02:08:10;;;;;;;;;;;15.80;99.90;;;;;;5022929;28;20048;-79
2022/09/25 02:10:39;;;;;;;17.58;3.50;;;15.80;99.90;;;;;;5029406;28;19929;-79
2022/09/25 02:13:09;;;;;;;13.82;3.38;;;15.80;99.90;;;;;;5026741;28;20041;-79
2022/09/25 02:15:41;;;;;;;12.98;2.70;;;15.80;99.90;;;;;;5015616;28;20052;-79
2022/09/25 02:20:57;;;;;;;16.23;2.70;;;15.80;99.90;;;;;;5025317;28;19921;-79
2022/09/25 02:23:27;;;;;;;12.43;2.88;;;15.80;99.90;;;;;;5028999;28;20513;-79
2022/09/25 02:25:58;;;;;;;12.35;2.85;;;15.80;99.90;;;;;;5018933;28;20053;-79
2022/09/25 02:28:25;;;;;;;15.77;2.92;;;15.80;99.90;;;;;;5021655;28;20130;-79
2022/09/25 02:30:54;;;;;;;13.60;2.35;;;15.80;99.90;;;;;;5020042;28;20049;-79
2022/09/25 02:33:21;;;;;;;11.65;2.53;;;15.90;99.90;;;;;;5009387;28;20050;-79
2022/09/25 02:35:48;;;;;;;10.68;2.65;;;15.70;99.90;;;;;;5016510;28;20414;-79
2022/09/25 02:38:16;;;;;;;12.45;2.95;;;15.70;99.90;;;;;;5024596;28;20049;-79
2022/09/25 02:40:48;;;;;;;14.93;3.00;;;15.70;99.90;;;;;;5016953;28;20046;-79
2022/09/25 02:43:24;;;;;;;14.38;2.63;;;15.60;99.90;;;;;;5010953;28;20054;-79
2022/09/25 02:45:58;;;;;;;6.43;2.40;;;15.70;99.90;;;;;;5009633;28;20049;-79
2022/09/25 02:48:32;;;;;;;8.80;2.22;;;15.70;99.90;;;;;;5028502;28;21693;-79
2022/09/25 02:51:03;;;;;;;11.90;2.70;;;15.70;99.90;;;;;;5001874;28;20680;-79
2022/09/25 02:53:35;;;;;;;15.00;2.80;;;15.70;99.90;;;;;;5018457;28;20049;-79
2022/09/25 02:56:04;;;;;;;12.50;2.20;;;15.70;99.90;;;;;;5028406;28;20448;-79
2022/09/25 02:58:35;;;;;;;15.07;2.83;;;15.70;99.90;;;;;;5025580;28;20648;-79
2022/09/25 03:01:06;;;;;;;12.73;2.70;;;15.70;99.90;;;;;;5030825;28;20490;-79
2022/09/25 03:03:34;;;;;;;12.07;2.92;;;15.60;99.90;;;;;;5023295;28;20042;-79
2022/09/25 03:06:01;;;;;;;10.38;2.35;;;15.70;99.90;;;;;;5031812;28;20053;-79
2022/09/25 03:08:37;;;;;;;14.68;2.63;;;15.70;99.90;;;;;;5032252;28;20165;-79
2022/09/25 03:11:04;;;;;;;11.90;2.30;;;15.70;99.90;;;;;;5030721;28;20134;-79
2022/09/25 03:13:32;;;;;;;16.98;2.95;;;15.70;99.90;;;;;;5020433;28;20042;-79
2022/09/25 03:16:03;;;;;;;12.98;2.33;;;15.60;99.90;;;;;;5018765;28;20045;-79
2022/09/25 03:18:30;;;;;;;;;;;15.70;99.90;;;;;;5022797;28;20075;-79
2022/09/25 03:20:57;;;;;;;8.43;1.88;;;15.60;99.90;;;;;;5020320;28;19930;-79
2022/09/25 03:23:24;;;;;;;11.20;2.72;;;15.60;99.90;;;;;;5014694;28;20081;-79
2022/09/25 03:25:53;;;;;;;12.73;2.75;;;15.50;99.90;;;;;;5019969;28;20099;-79
2022/09/25 03:28:21;;;;;;;13.98;2.45;;;15.60;99.90;;;;;;5017987;28;20080;-79
2022/09/25 03:30:57;;;;;;;13.25;2.72;;;15.50;99.90;;;;;;5032049;28;20045;-79
2022/09/25 03:33:25;;;;;;;11.63;2.15;;;15.50;99.90;;;;;;5030945;28;20524;-79
2022/09/25 03:36:00;;;;;;;9.75;2.28;;;15.50;99.90;;;;;;5019576;28;20042;-79
2022/09/25 03:38:27;;;;;;;11.68;2.90;;;15.40;99.90;;;;;;5027540;28;20053;-79
2022/09/25 03:40:54;;;;;;;16.65;3.10;;;15.40;99.90;;;;;;5031999;28;20049;-79
2022/09/25 03:43:21;;;;;;;13.98;2.85;;;15.40;99.90;;;;;;5024289;28;20065;-79
2022/09/25 03:45:48;;;;;;;12.02;2.88;;;15.40;99.90;;;;;;5007832;28;20053;-79
2022/09/25 03:48:15;;;;;;;14.43;2.78;;;15.40;99.90;;;;;;5019439;28;20652;-79
2022/09/25 03:50:45;;;;;;;13.98;2.60;;;15.40;99.90;;;;;;5031277;28;20089;-79
2022/09/25 03:53:12;;;;;;;9.65;2.53;;;15.40;99.90;;;;;;5031704;28;20045;-79
2022/09/25 03:55:39;;;;;;;9.95;2.38;;;15.30;99.90;;;;;;5030040;28;20052;-79
2022/09/25 03:58:05;;;;;;;10.20;3.20;;;15.30;99.90;;;;;;5019125;28;20077;-79
2022/09/25 04:00:33;;;;;;;10.88;2.65;;;15.40;99.90;;;;;;5018339;28;20050;-79
2022/09/25 04:02:59;;;;;;;8.02;2.25;;;15.30;99.90;;;;;;5031734;28;20120;-79
2022/09/25 04:05:26;;;;;;;12.88;2.50;;;15.20;99.90;;;;;;5030830;28;20607;-79
2022/09/25 04:07:55;;;;;;;11.23;2.55;;;15.20;99.90;;;;;;5029194;28;20049;-79
2022/09/25 04:10:21;;;;;;;12.77;2.67;;;15.20;99.90;;;;;;5021166;28;20037;-79
2022/09/25 04:12:54;;;;;;;17.40;2.83;;;15.20;99.90;;;;;;5031062;28;20044;-79
2022/09/25 04:15:22;;;;;;;9.88;2.50;;;15.20;99.90;;;;;;5018996;28;20042;-79
2022/09/25 04:17:49;;;;;;;13.88;2.67;;;15.10;99.90;;;;;;5029471;28;20387;-79
2022/09/25 04:20:18;;;;;;;12.52;2.38;;;15.10;99.90;;;;;;5028050;28;20042;-79
2022/09/25 04:22:45;;;;;;;12.43;2.70;;;15.10;99.90;;;;;;5019431;28;20033;-79
2022/09/25 04:25:13;;;;;;;9.48;2.42;;;15.10;99.90;;;;;;5030742;28;20041;-79
2022/09/25 04:27:40;;;;;;;8.57;2.30;;;15.10;99.90;;;;;;5030638;28;20047;-79
2022/09/25 04:30:10;;;;;;;8.90;2.20;;;15.10;99.90;;;;;;5030963;28;20711;-79
2022/09/25 04:35:21;;;;;;;14.25;2.65;;;15.10;99.90;;;;;;5018039;28;20034;-79
2022/09/25 04:37:51;;;;;;;9.90;3.13;;;15.10;99.90;;;;;;5019321;28;20053;-79
2022/09/25 04:40:19;;;;;;;11.88;2.75;;;15.00;99.90;;;;;;5020682;28;20124;-79
2022/09/25 04:42:47;;;;;;;12.13;2.80;;;15.00;99.90;;;;;;5031274;28;20391;-79
2022/09/25 04:45:15;;;;;;;15.23;3.33;;;15.00;99.90;;;;;;5023702;28;20049;-79
2022/09/25 04:47:42;;;;;;;10.85;2.40;;;15.00;99.90;;;;;;5025697;28;20128;-79
2022/09/25 04:50:12;;;;;;;11.70;2.78;;;14.90;99.90;;;;;;5030487;28;20037;-79
2022/09/25 04:52:42;;;;;;;11.45;3.00;;;14.90;99.90;;;;;;5030618;28;20120;-79
2022/09/25 04:55:09;;;;;;;12.50;3.00;;;14.90;99.90;;;;;;5029900;28;20073;-79
2022/09/25 04:57:38;;;;;;;11.73;2.20;;;14.90;99.90;;;;;;5023271;28;20514;-79
2022/09/25 05:00:08;;;;;;;14.85;3.22;;;14.90;99.90;;;;;;5027700;28;20052;-79
2022/09/25 05:02:35;;;;;;;11.38;2.88;;;14.90;99.90;;;;;;5024529;28;20125;-79
2022/09/25 05:05:02;;;;;;;11.85;2.80;;;14.80;99.90;;;;;;5022554;28;20044;-79
2022/09/25 05:07:31;;;;;;;11.13;2.60;;;14.80;99.90;;;;;;5029606;28;20479;-78
2022/09/25 05:09:58;;;;;;;9.52;2.55;;;14.80;99.90;;;;;;5021807;28;20615;-78
2022/09/25 05:12:25;;;;;;;9.82;2.70;;;14.80;99.90;;;;;;5030322;28;20069;-79
2022/09/25 05:14:53;;;;;;;11.10;2.28;;;14.70;99.90;;;;;;5028873;28;20049;-79
2022/09/25 05:17:20;;;;;;;8.32;2.70;;;14.70;99.90;;;;;;5030204;28;20049;-79
2022/09/25 05:19:47;;;;;;;10.55;2.55;;;14.60;99.90;;;;;;5028721;28;20517;-80
2022/09/25 05:22:17;;;;;;;6.35;2.15;;;14.60;99.90;;;;;;5022838;28;20041;-80
2022/09/25 05:24:46;;;;;;;9.93;2.50;;;14.60;99.90;;;;;;5009605;28;20048;-80
2022/09/25 05:27:13;;;;;;;6.85;2.40;;;14.60;99.90;;;;;;5017869;28;20429;-80
2022/09/25 05:29:42;;;;;;;13.85;2.75;;;14.50;99.90;;;;;;5022878;28;20042;-80
2022/09/25 05:32:17;;;;;;;9.15;2.78;;;14.60;99.90;;;;;;5024480;28;20048;-80
2022/09/25 05:34:50;;;;;;;10.43;3.05;;;14.50;99.90;;;;;;5017539;28;20137;-80
2022/09/25 05:37:17;;;;;;;13.15;3.08;;;14.50;99.90;;;;;;5027205;28;20050;-80
2022/09/25 05:39:47;;;;;;;9.23;3.10;;;14.50;99.90;;;;;;5029136;28;20164;-80
2022/09/25 05:42:18;;;;;;;15.00;3.40;;;14.50;99.90;;;;;;5029464;28;20056;-80
2022/09/25 05:44:50;;;;;;;15.55;3.50;;;14.50;99.90;;;;;;5012190;28;20097;-80
2022/09/25 05:47:19;;;;;;;13.40;3.00;;;14.40;99.90;;;;;;5014556;28;20073;-80
2022/09/25 05:49:45;;;;;;;12.07;3.42;;;14.40;99.90;;;;;;5009992;28;20050;-79
2022/09/25 05:52:12;;;;;;;15.60;3.63;;;14.40;99.90;;;;;;5024788;28;20038;-79
2022/09/25 05:54:42;;;;;;;8.68;3.10;;;14.50;99.90;;;;;;5028659;28;20132;-80
2022/09/25 05:57:09;;;;;;;14.88;3.30;;;14.40;99.90;;;;;;5022044;28;20053;-79
2022/09/25 05:59:36;;;;;;;12.25;3.63;;;14.40;99.90;;;;;;5020789;28;20041;-80
2022/09/25 06:02:03;;;;;;;12.63;3.40;;;14.40;99.90;;;;;;5029539;28;20055;-79
2022/09/25 06:04:31;;;;;;;11.40;3.42;;;14.50;99.90;;;;;;5028443;28;20041;-79
2022/09/25 06:07:01;;;;;;;14.02;3.00;;;14.50;99.90;;;;;;5027530;28;20403;-79
2022/09/25 06:09:31;;;;;;;12.68;2.95;;;14.40;99.90;;;;;;5018858;28;20050;-79
2022/09/25 06:12:01;;;;;;;9.00;2.90;;;14.40;99.90;;;;;;5025261;28;20175;-79
2022/09/25 06:14:29;;;;;;;18.08;3.55;;;14.40;99.90;;;;;;5015250;28;20414;-79
2022/09/25 06:16:58;;;;;;;12.35;3.47;;;14.40;99.90;;;;;;5025845;28;20099;-79
2022/09/25 06:19:27;;;;;;;13.13;3.70;;;14.40;99.90;;;;;;5023947;28;20096;-79
2022/09/25 06:21:56;;;;;;;10.05;2.97;;;14.40;99.90;;;;;;4999637;28;20050;-79
2022/09/25 06:24:25;;;;;;;12.18;3.45;;;14.40;99.90;;;;;;5011343;28;20048;-87
2022/09/25 06:26:52;;;;;;;8.50;3.05;;;14.40;99.90;;;;;;5029176;28;20053;-79
2022/09/25 06:29:19;;;;;;;11.80;3.72;;;14.50;99.90;;;;;;5027999;28;20041;-80
2022/09/25 06:31:46;;;;;;;14.98;3.72;;;14.40;99.90;;;;;;5026021;28;20053;-78
2022/09/25 06:34:13;;;;;;;11.35;3.25;;;14.50;99.90;;;;;;5020062;28;20044;-78
2022/09/25 06:36:41;;;;;;;12.65;3.80;;;14.50;99.90;;;;;;5028186;28;20060;-79
2022/09/25 06:39:09;;;;;;;15.98;3.72;;;14.50;99.90;;;;;;5026592;28;20058;-78
2022/09/25 06:41:36;;;;;;;16.15;3.38;;;14.50;99.90;;;;;;5016811;28;20042;-79
2022/09/25 06:44:03;;;;;;;13.35;4.15;;;14.50;99.90;;;;;;5013169;28;20041;-79
2022/09/25 06:46:30;;;;;;;11.32;3.78;;;14.50;99.90;;;;;;5016443;28;20057;-79
2022/09/25 06:48:57;;;;;;;14.45;4.20;;;14.50;99.90;;;;;;5020065;28;20045;-80
2022/09/25 06:51:27;;;;;;;11.23;3.90;;;14.50;99.90;;;;;;5028226;28;20049;-80
2022/09/25 06:53:54;;;;;;;14.50;4.00;;;14.50;99.90;;;;;;5020723;28;20101;-79
2022/09/25 06:56:23;;;;;;;13.27;3.92;;;14.50;99.90;;;;;;5019055;28;20300;-78
2022/09/25 06:58:50;;;;;;;14.43;4.43;;;14.50;99.90;;;;;;5027928;28;20073;-77
2022/09/25 07:01:16;;;;;;;17.38;4.68;;;14.50;99.90;;;;;;5028483;28;20052;-78
2022/09/25 07:03:46;;;;;;;14.00;4.40;;;14.60;99.90;;;;;;5028313;28;20048;-77
2022/09/25 07:06:15;;;;;;;13.93;4.97;;;14.60;99.90;;;;;;5027637;28;20041;-78
2022/09/25 07:08:42;;;;;;;16.85;3.95;;;14.60;99.90;;;;;;5019999;28;20065;-78
2022/09/25 07:11:12;;;;;;;12.73;3.72;;;14.60;99.90;;;;;;5026010;28;20046;-79
2022/09/25 07:13:41;;;;;;;13.45;3.47;;;14.70;99.90;;;;;;5027686;28;20518;-79
2022/09/25 07:16:11;;;;;;;13.05;3.45;;;14.70;99.90;;;;;;5025702;28;20056;-79
2022/09/25 07:18:38;;;;;;;15.13;4.13;;;14.70;99.90;;;;;;5025961;28;20140;-79
2022/09/25 07:21:07;;;;;;;10.38;3.65;;;14.80;99.90;;;;;;5017181;28;20050;-86
2022/09/25 07:23:35;;;;;;;13.30;3.55;;;14.80;99.90;;;;;;5024509;28;20037;-85
2022/09/25 07:26:06;;;;;;;14.10;4.47;;;14.90;99.90;;;;;;5017147;28;20124;-88
2022/09/25 07:28:33;;;;;;;9.77;3.45;;;14.90;99.90;;;;;;5017222;28;20046;-89
2022/09/25 07:31:10;;;;;;;17.50;3.95;;;14.90;99.90;;;;;;4994125;28;20045;-89
2022/09/25 07:33:37;;;;;;;13.93;3.60;;;15.00;99.90;;;;;;4999737;28;20418;-87
2022/09/25 07:36:04;;;;;;;13.75;3.53;;;15.00;99.90;;;;;;5025193;28;20048;-89
2022/09/25 07:38:33;;;;;;;14.10;3.70;;;15.10;99.90;;;;;;5016399;28;20408;-82
2022/09/25 07:41:00;;;;;;;15.40;3.45;;;15.10;99.90;;;;;;5027414;28;20124;-83
2022/09/25 07:43:27;;;;;;;15.20;3.90;;;15.10;99.90;;;;;;5018487;28;20025;-82
2022/09/25 07:45:53;;;;;;;13.00;3.47;;;15.20;99.90;;;;;;5029781;28;20052;-82
2022/09/25 07:48:22;;;;;;;13.88;3.67;;;15.20;99.90;;;;;;5021838;28;20514;-82
2022/09/25 07:50:49;;;;;;;22.33;3.90;;;15.20;99.90;;;;;;5016692;28;20502;-82
2022/09/25 07:53:17;;;;;;;8.45;2.70;;;15.30;99.90;;;;;;5005309;28;20513;-83
2022/09/25 07:55:44;;;;;;;10.43;3.05;;;15.30;99.90;;;;;;5025420;28;20041;-82
2022/09/25 07:58:11;;;;;;;17.38;3.42;;;15.30;99.90;;;;;;5028940;28;20399;-82
2022/09/25 08:00:39;;;;;;;12.25;3.17;;;15.30;99.90;;;;;;5023705;28;20413;-83
2022/09/25 08:03:06;;;;;;;13.15;2.70;;;15.40;99.90;;;;;;5024577;28;20041;-83
2022/09/25 08:05:34;;;;;;;17.15;2.97;;;15.40;99.90;;;;;;5018450;28;20494;-83
2022/09/25 08:08:02;;;;;;;9.38;2.45;;;15.50;99.90;;;;;;5024358;28;20046;-82
2022/09/25 08:10:29;;;;;;;12.25;2.78;;;15.50;99.90;;;;;;5026196;28;20044;-83
2022/09/25 08:12:56;;;;;;;11.40;2.67;;;15.50;99.90;;;;;;5021887;28;20144;-82
2022/09/25 08:15:24;;;;;;;10.18;2.25;;;15.60;99.90;;;;;;5029604;28;20040;-82
2022/09/25 08:17:51;;;;;;;13.75;2.60;;;15.50;99.90;;;;;;5015448;28;20045;-82
2022/09/25 08:20:18;;;;;;;11.55;2.40;;;15.60;99.90;;;;;;5021535;28;20770;-82
2022/09/25 08:22:47;;;;;;;14.02;2.58;;;15.70;99.90;;;;;;5017939;28;20045;-82
2022/09/25 08:25:14;;;;;;;8.63;2.15;;;15.70;99.90;;;;;;5023425;28;20041;-83
2022/09/25 08:27:42;;;;;;;10.38;2.25;;;15.70;99.90;;;;;;5015711;28;20057;-83
2022/09/25 08:30:11;;;;;;;7.43;2.17;;;15.70;99.90;;;;;;5011188;28;20045;-82
2022/09/25 08:32:38;;;;;;;10.90;1.98;;;15.70;99.90;;;;;;5017962;28;20053;-83
2022/09/25 08:35:06;;;;;;;9.38;1.88;;;15.80;99.90;;;;;;5022769;28;20073;-82
2022/09/25 08:37:32;;;;;;;9.00;1.70;;;15.80;99.90;;;;;;5016813;28;20084;-83
2022/09/25 08:40:01;;;;;;;11.80;2.08;;;15.80;99.90;;;;;;5019041;28;20081;-82
2022/09/25 08:42:33;;;;;;;13.05;2.42;;;15.90;99.90;;;;;;5016598;28;20045;-82
2022/09/25 08:50:35;;;;;;;13.30;1.65;;;16.00;99.90;;;;;;5011267;28;20108;-82
2022/09/25 08:53:06;;;;;;;10.88;1.85;;;16.00;99.90;;;;;;5014751;28;20616;-83
2022/09/25 08:58:24;;;;;;;8.95;1.55;;;16.00;99.90;;;;;;5020879;28;20046;-83
2022/09/25 09:00:52;;;;;;;10.35;1.65;;;16.10;99.90;;;;;;5038326;28;20081;-83
2022/09/25 09:03:19;;;;;;;7.90;1.60;;;16.10;99.90;;;;;;5042232;28;20037;-83
2022/09/25 09:05:47;;;;;;;8.70;1.95;;;16.10;99.90;;;;;;5036798;28;20053;-83
2022/09/25 09:08:17;;;;;;;10.27;1.88;;;16.10;99.90;;;;;;5038339;28;20053;-83
2022/09/25 09:10:49;;;;;;;16.20;1.67;;;16.20;99.90;;;;;;5040820;28;20044;-83
2022/09/25 09:13:19;;;;;;;11.80;1.90;;;16.20;99.90;;;;;;5048027;28;20048;-82
2022/09/25 09:15:51;;;;;;;7.55;1.70;;;16.20;99.90;;;;;;5025363;28;20050;-82
2022/09/25 09:18:22;;;;;;;13.95;2.25;;;16.20;99.90;;;;;;5027015;28;20048;-83
2022/09/25 09:20:52;;;;;;;9.18;2.22;;;16.30;99.90;;;;;;5042625;28;20049;-82
2022/09/25 09:23:21;;;;;;;8.43;1.80;;;16.20;99.90;;;;;;5028730;28;20144;-83
2022/09/25 09:25:56;;;;;;;9.63;1.73;;;16.20;99.90;;;;;;5020335;28;20056;-83
2022/09/25 09:28:58;;;;;;;8.57;1.48;;;16.20;99.90;;;;;;5030018;28;20120;-83
2022/09/25 09:31:29;;;;;;;11.63;1.83;;;16.30;99.90;;;;;;5024160;28;20061;-83
2022/09/25 09:34:16;;;;;;;8.13;1.92;;;16.30;99.90;;;;;;5012251;28;20131;-82
2022/09/25 09:36:48;;;;;;;8.07;1.33;;;16.40;99.90;;;;;;5028237;28;20060;-84
2022/09/25 09:39:19;;;;;;;8.13;1.85;;;16.40;99.90;;;;;;5033492;28;20424;-83
2022/09/25 09:41:49;;;;;;;;;;;16.40;99.90;;;;;;5022404;28;20636;-83
2022/09/25 09:44:27;;;;;;;9.40;1.73;;;16.40;99.90;;;;;;5019356;28;19926;-85
2022/09/25 09:47:01;;;;;;;10.13;1.52;;;16.40;99.90;;;;;;5022698;28;20060;-83
2022/09/25 09:49:32;;;;;;;8.40;1.42;;;16.40;99.90;;;;;;5030792;28;20116;-83
2022/09/25 09:52:03;;;;;;;8.65;1.30;;;16.40;99.90;;;;;;5019183;28;20616;-83
2022/09/25 09:54:34;;;;;;;8.35;1.52;;;16.40;99.90;;;;;;5028927;28;20516;-83
2022/09/25 09:57:09;;;;;;;12.48;2.35;;;16.40;99.90;;;;;;5028946;28;20057;-83
2022/09/25 09:59:43;;;;;;;8.25;1.83;;;16.40;99.90;;;;;;5034025;28;20056;-84
2022/09/25 10:02:29;;;;;;;9.02;1.58;;;16.50;99.90;;;;;;5016375;28;20719;-81
2022/09/25 10:04:56;;;;;;;7.57;1.55;;;16.50;99.90;;;;;;5016256;28;20438;-82
2022/09/25 10:07:24;;;;;;;6.18;1.45;;;16.40;99.90;;;;;;5032460;28;20037;-81
2022/09/25 10:09:50;;;;;;;6.80;1.55;;;16.50;99.90;;;;;;5041070;28;20049;-81
2022/09/25 10:12:27;;;;;;;7.32;1.33;;;16.50;99.90;;;;;;5028794;28;20042;-82
2022/09/25 10:14:55;;;;;;;5.75;1.60;;;16.50;99.90;;;;;;5012715;28;20042;-82
2022/09/25 10:17:23;;;;;;;7.70;1.73;;;16.50;99.90;;;;;;5023749;28;20045;-82
2022/09/25 10:19:53;;;;;;;5.85;1.27;;;16.60;99.90;;;;;;5040960;28;20049;-82
2022/09/25 10:22:22;;;;;;;8.60;1.90;;;16.60;99.80;;;;;;5020532;28;20430;-82
2022/09/25 10:24:52;;;;;;;12.32;1.90;;;16.60;99.50;;;;;;5012729;28;20048;-83
2022/09/25 10:27:25;;;;;;;6.60;1.40;;;16.60;99.90;;;;;;5024339;28;20059;-83
2022/09/25 10:30:06;;;;;;;6.20;1.23;;;16.70;99.90;;;;;;5019225;28;20060;-83
2022/09/25 10:32:34;;;;;;;8.77;1.45;;;16.70;97.40;;;;;;5016435;28;20060;-83
2022/09/25 10:35:02;;;;;;;11.35;2.25;;;16.70;97.80;;;;;;5028150;28;20430;-83
2022/09/25 10:37:33;;;;;;;7.50;1.50;;;16.70;97.90;;;;;;5031489;28;20107;-83
2022/09/25 10:40:03;;;;;;;7.55;1.70;;;16.70;97.50;;;;;;5028940;28;20788;-83
2022/09/25 10:42:36;;;;;;;5.75;1.20;;;16.70;96.70;;;;;;5020775;28;20042;-83
2022/09/25 10:45:20;;;;;;;6.63;1.33;;;16.70;96.90;;;;;;5022439;28;20049;-83
2022/09/25 10:50:33;;;;;;;6.53;1.70;;;16.70;97.20;;;;;;5027083;28;21530;-83
2022/09/25 10:53:02;;;;;;;12.32;1.70;;;16.80;97.00;;;;;;5004719;28;20053;-83
2022/09/25 10:55:30;;;;;;;11.50;2.05;;;16.80;97.40;;;;;;5019996;28;20037;-83
2022/09/25 10:58:11;;;;;;;6.13;1.73;;;16.70;97.70;;;;;;5036661;28;20069;-83
2022/09/25 11:00:42;;;;;;;6.63;1.20;;;16.70;97.90;;;;;;5028825;28;20052;-83
2022/09/25 11:03:19;;;;;;;6.45;1.48;;;16.70;98.30;;;;;;5028890;28;20123;-83
2022/09/25 11:05:51;;;;;;;8.38;1.60;;;16.80;97.90;;;;;;5034165;28;20049;-84
2022/09/25 11:08:18;;;;;;;7.32;1.70;;;16.80;98.10;;;;;;5030640;28;20636;-83
2022/09/25 11:10:49;;;;;;;7.80;1.63;;;16.80;98.10;;;;;;5031947;28;20560;-83
2022/09/25 11:13:23;;;;;;;9.55;1.65;;;16.80;98.10;;;;;;5031360;28;20056;-83
2022/09/25 11:15:52;;;;;;;6.63;1.35;;;16.80;96.20;;;;;;5024810;28;20049;-83
2022/09/25 11:18:34;;;;;;;5.53;1.00;;;16.80;95.30;;;;;;5021436;28;20055;-83
2022/09/25 11:21:03;;;;;;;6.57;1.20;;;16.90;95.10;;;;;;5013299;28;20053;-83
2022/09/25 11:23:34;;;;;;;7.65;1.08;;;16.90;95.70;;;;;;5023114;28;20038;-83
2022/09/25 11:26:07;;;;;;;4.65;1.20;;;16.90;97.10;;;;;;5020850;28;20048;-83
2022/09/25 11:28:39;;;;;;;5.55;1.45;;;16.90;96.40;;;;;;5023750;28;20052;-84
2022/09/25 11:31:11;;;;;;;6.45;1.30;;;16.90;95.40;;;;;;5026435;28;20040;-84
2022/09/25 11:33:42;;;;;;;12.10;1.50;;;16.90;95.90;;;;;;5010455;28;20140;-88
2022/09/25 11:36:14;;;;;;;5.82;1.35;;;17.00;94.90;;;;;;5027392;28;20045;-89
2022/09/25 11:41:35;;;;;;;5.90;1.38;;;17.00;94.30;;;;;;5024078;28;20199;-83
2022/09/25 11:44:10;;;;;;;8.10;1.33;;;17.00;94.40;;;;;;5001337;28;20101;-85
2022/09/25 11:46:42;;;;;;;7.20;1.17;;;17.10;94.60;;;;;;5011554;28;20049;-89
2022/09/25 11:49:16;;;;;;;7.35;1.20;;;17.00;94.30;;;;;;5020731;28;20050;-87
2022/09/25 11:52:17;;;;;;;5.70;0.90;;;17.10;93.90;;;;;;5021412;28;20038;-87
2022/09/25 11:55:08;;;;;;;5.40;1.10;;;17.00;91.70;;;;;;5027916;28;20561;-87
2022/09/25 11:57:39;;;;;;;4.82;1.15;;;17.10;91.70;;;;;;5012466;28;20054;-87
2022/09/25 12:00:13;;;;;;;5.13;1.30;;;17.00;90.70;;;;;;5023915;28;20045;-88
2022/09/25 12:02:56;;;;;;;6.28;0.98;;;17.00;92.20;;;;;;5018263;28;20529;-88
2022/09/25 12:05:33;;;;;;;7.35;1.65;;;17.00;93.10;;;;;;5038429;28;20080;-87
2022/09/25 12:08:14;;;;;;;4.53;1.30;;;17.00;93.00;;;;;;5019333;28;20057;-89
2022/09/25 12:10:52;;;;;;;4.87;1.07;;;17.00;93.00;;;;;;5032926;28;20049;-89
2022/09/25 12:13:23;;;;;;;4.78;1.10;;;17.00;92.40;;;;;;5039965;28;20052;-87
2022/09/25 12:15:59;;;;;;;3.80;1.20;;;17.00;90.10;;;;;;5030523;28;20095;-87
2022/09/25 12:18:47;;;;;;;3.28;1.33;;;17.00;89.10;;;;;;5013394;28;20052;-87
2022/09/25 12:21:20;;;;;;;5.38;1.00;;;17.00;90.80;;;;;;5041707;28;20041;-88
2022/09/25 12:23:57;;;;;;;5.13;1.10;;;17.00;88.90;;;;;;5025408;28;20080;-89
2022/09/25 12:26:30;;;;;;;7.82;1.27;;;17.00;89.00;;;;;;5012332;28;20052;-88
2022/09/25 12:29:15;;;;;;;5.20;1.20;;;17.10;89.10;;;;;;5025621;28;20052;-88
2022/09/25 12:31:52;;;;;;;5.22;1.20;;;17.10;89.20;;;;;;4990336;28;20104;-88
2022/09/25 12:34:29;;;;;;;3.85;1.00;;;17.10;90.20;;;;;;4971994;28;20070;-84
2022/09/25 12:37:02;;;;;;;4.88;1.33;;;17.10;90.30;;;;;;4990284;28;20062;-89
2022/09/25 12:39:36;;;;;;;6.78;1.33;;;17.20;91.20;;;;;;4979290;28;20049;-90
2022/09/25 12:42:07;;;;;;;4.20;1.13;;;17.20;90.00;;;;;;4968179;28;20054;-89
2022/09/25 12:44:42;;;;;;;5.65;1.10;;;17.20;89.20;;;;;;4973718;28;20125;-91
2022/09/25 12:47:16;;;;;;;6.22;1.13;;;17.20;91.10;;;;;;4992413;28;20692;-90
2022/09/25 12:49:46;;;;;;;60.30;5.10;;;17.20;91.20;;;;;;4987902;28;20073;-88
2022/09/25 12:52:17;;;;;;;6.30;1.27;;;17.30;89.80;;;;;;4976238;28;20055;-89
2022/09/25 12:54:52;;;;;;;10.52;1.90;;;17.30;87.70;;;;;;4980086;28;20686;-88
2022/09/25 12:57:22;;;;;;;6.03;1.65;;;17.30;87.80;;;;;;4984342;28;20058;-89
2022/09/25 12:59:52;;;;;;;4.20;1.00;;;17.30;86.90;;;;;;4989536;28;20133;-89
2022/09/25 13:02:27;;;;;;;4.47;1.08;;;17.30;88.30;;;;;;4979617;28;20046;-89
2022/09/25 13:05:03;;;;;;;5.72;0.80;;;17.30;88.10;;;;;;4974070;28;20046;-92
2022/09/25 13:07:36;;;;;;;2.88;0.70;;;17.30;88.20;;;;;;4989733;28;20073;-89
2022/09/25 13:10:10;;;;;;;4.18;1.02;;;17.30;88.50;;;;;;5015539;28;20473;-89
2022/09/25 13:12:38;;;;;;;8.35;1.17;;;17.30;84.50;;;;;;5006253;28;20529;-91
2022/09/25 13:15:07;;;;;;;6.45;0.80;;;17.30;84.40;;;;;;5020060;28;20198;-91